Time;durP1;ratioP1;P1;durP2;ratioP2;P2;SDS_P1;SDS_P2;PMS_P1;PMS_P2;Temp;Humidity;BMP_temperature;BMP_pressure;BME280_temperature;BME280_humidity;BME280_pressure;Samples;Min_cycle;Max_cycle;Signal;HPM_P1;HPM_P2
2021/09/09 00:01:09;;;;;;;10.43;8.65;;;;;;;;;;5023543;28;20042;-71
2021/09/09 00:03:35;;;;;;;9.50;7.53;;;;;;;;;;5019105;28;20038;-71
2021/09/09 00:06:01;;;;;;;11.52;8.48;;;;;;;;;;5020981;28;20045;-71
2021/09/09 00:08:27;;;;;;;13.82;8.68;;;;;;;;;;5010780;28;20033;-71
2021/09/09 00:10:53;;;;;;;10.85;8.95;;;;;;;;;;5017944;28;20133;-71
2021/09/09 00:13:19;;;;;;;10.63;8.27;;;;;;;;;;5010109;28;20054;-71
2021/09/09 00:15:45;;;;;;;16.95;9.70;;;;;;;;;;5022454;28;20041;-71
2021/09/09 00:18:12;;;;;;;11.65;9.10;;;;;;;;;;5014888;28;20124;-71
2021/09/09 00:20:38;;;;;;;10.02;8.82;;;;;;;;;;5016717;28;20446;-71
2021/09/09 00:23:04;;;;;;;10.13;9.00;;;;;;;;;;5015472;28;20045;-71
2021/09/09 00:25:30;;;;;;;13.57;9.05;;;;;;;;;;5013311;28;20038;-71
2021/09/09 00:27:56;;;;;;;9.88;8.38;;;;;;;;;;5010923;28;20072;-71
2021/09/09 00:30:22;;;;;;;10.77;9.07;;;;;;;;;;5000120;28;20042;-71
2021/09/09 00:32:48;;;;;;;10.38;9.38;;;;;;;;;;5016842;28;20037;-71
2021/09/09 00:35:14;;;;;;;11.82;9.07;;;;;;;;;;4996071;28;20049;-71
2021/09/09 00:37:41;;;;;;;11.82;9.15;;;;;;;;;;5017864;28;20165;-71
2021/09/09 00:40:07;;;;;;;11.50;9.52;;;;;;;;;;5014210;28;20077;-71
2021/09/09 00:42:33;;;;;;;10.15;9.15;;;;;;;;;;5016853;28;20057;-71
2021/09/09 00:45:00;;;;;;;11.32;9.75;;;;;;;;;;5013061;28;20112;-71
2021/09/09 00:47:26;;;;;;;10.77;9.70;;;;;;;;;;5018445;28;20072;-71
2021/09/09 00:49:52;;;;;;;9.93;8.93;;;;;;;;;;5015577;28;20152;-71
2021/09/09 00:52:18;;;;;;;11.43;10.20;;;;;;;;;;5016997;28;20078;-71
2021/09/09 00:54:45;;;;;;;11.00;9.45;;;;;;;;;;5007550;28;20045;-71
2021/09/09 00:57:11;;;;;;;10.63;9.25;;;;;;;;;;5017870;28;20452;-71
2021/09/09 00:59:37;;;;;;;11.05;9.85;;;;;;;;;;5020395;28;20064;-71
2021/09/09 01:02:04;;;;;;;13.52;10.02;;;;;;;;;;5016149;28;20046;-71
2021/09/09 01:04:30;;;;;;;12.00;9.50;;;;;;;;;;5022711;28;20042;-71
2021/09/09 01:06:57;;;;;;;11.77;8.85;;;;;;;;;;5014024;28;20041;-71
2021/09/09 01:09:23;;;;;;;12.98;9.57;;;;;;;;;;5019357;28;20037;-71
2021/09/09 01:11:49;;;;;;;12.93;10.32;;;;;;;;;;5011464;28;20436;-71
2021/09/09 01:14:17;;;;;;;11.60;10.23;;;;;;;;;;5021042;28;20117;-71
2021/09/09 01:16:44;;;;;;;10.23;9.23;;;;;;;;;;4996724;28;20042;-71
2021/09/09 01:19:11;;;;;;;11.10;8.75;;;;;;;;;;5020266;28;20397;-71
2021/09/09 01:21:38;;;;;;;13.05;10.13;;;;;;;;;;5015766;28;20052;-71
2021/09/09 01:24:17;;;;;;;12.90;10.18;;;;;;;;;;5014921;28;20037;-70
2021/09/09 01:26:54;;;;;;;12.40;10.35;;;;;;;;;;5000917;28;20041;-70
2021/09/09 01:29:26;;;;;;;14.77;9.93;;;;;;;;;;5020196;28;20065;-70
2021/09/09 01:31:52;;;;;;;13.05;10.50;;;;;;;;;;5015947;28;20046;-70
2021/09/09 01:34:18;;;;;;;12.30;10.48;;;;;;;;;;5018886;28;20041;-71
2021/09/09 01:36:45;;;;;;;11.45;10.25;;;;;;;;;;5018051;28;20041;-70
2021/09/09 01:39:11;;;;;;;12.32;11.00;;;;;;;;;;5009150;28;20163;-70
2021/09/09 01:41:37;;;;;;;11.52;9.82;;;;;;;;;;5016316;28;20158;-71
2021/09/09 01:44:04;;;;;;;12.80;10.18;;;;;;;;;;5022044;28;20041;-71
2021/09/09 01:46:30;;;;;;;12.57;10.45;;;;;;;;;;5013523;28;20363;-70
2021/09/09 01:48:57;;;;;;;11.70;10.18;;;;;;;;;;5017881;28;20042;-70
2021/09/09 01:51:24;;;;;;;12.05;10.60;;;;;;;;;;4998793;28;20037;-70
2021/09/09 01:53:50;;;;;;;14.32;11.57;;;;;;;;;;5029219;28;20065;-70
2021/09/09 01:56:16;;;;;;;14.32;10.90;;;;;;;;;;5017017;28;20445;-70
2021/09/09 01:58:42;;;;;;;13.05;11.02;;;;;;;;;;5008160;28;20081;-71
2021/09/09 02:01:10;;;;;;;13.50;11.05;;;;;;;;;;5032650;28;20059;-70
2021/09/09 02:03:36;;;;;;;12.73;11.38;;;;;;;;;;5010142;28;20038;-71
2021/09/09 02:06:03;;;;;;;14.77;11.30;;;;;;;;;;5016303;28;20037;-71
2021/09/09 02:08:29;;;;;;;14.02;10.63;;;;;;;;;;5010671;28;20052;-71
2021/09/09 02:10:55;;;;;;;14.50;11.85;;;;;;;;;;5019323;28;20034;-71
2021/09/09 02:13:21;;;;;;;14.00;11.35;;;;;;;;;;5013553;28;20254;-71
2021/09/09 02:15:47;;;;;;;13.63;11.75;;;;;;;;;;5016203;28;20130;-71
2021/09/09 02:18:13;;;;;;;13.73;11.82;;;;;;;;;;5051777;28;20040;-71
2021/09/09 02:20:39;;;;;;;14.70;12.20;;;;;;;;;;5016604;28;20038;-71
2021/09/09 02:23:05;;;;;;;13.63;11.23;;;;;;;;;;5016582;28;20042;-71
2021/09/09 02:25:31;;;;;;;13.55;10.93;;;;;;;;;;5020048;28;20046;-71
2021/09/09 02:27:57;;;;;;;13.07;11.35;;;;;;;;;;5027343;28;20041;-71
2021/09/09 02:30:24;;;;;;;12.80;11.50;;;;;;;;;;5022573;28;20041;-71
2021/09/09 02:32:50;;;;;;;13.07;11.77;;;;;;;;;;5025667;28;20478;-71
2021/09/09 02:35:16;;;;;;;16.92;12.43;;;;;;;;;;5016892;28;20124;-71
2021/09/09 02:37:42;;;;;;;13.93;11.75;;;;;;;;;;5023106;28;20049;-71
2021/09/09 02:40:09;;;;;;;13.45;12.05;;;;;;;;;;5015663;28;20450;-71
2021/09/09 02:42:35;;;;;;;15.05;11.43;;;;;;;;;;5016309;28;20057;-71
2021/09/09 02:45:01;;;;;;;14.80;12.00;;;;;;;;;;5006651;28;20179;-71
2021/09/09 02:47:27;;;;;;;12.63;11.10;;;;;;;;;;5019015;28;20041;-71
2021/09/09 02:49:53;;;;;;;12.73;11.45;;;;;;;;;;5015823;28;20059;-71
2021/09/09 02:52:20;;;;;;;13.93;11.07;;;;;;;;;;5029047;28;20428;-71
2021/09/09 02:54:46;;;;;;;15.70;12.98;;;;;;;;;;5012070;28;20038;-71
2021/09/09 02:57:12;;;;;;;14.02;12.52;;;;;;;;;;5022265;28;20413;-71
2021/09/09 02:59:38;;;;;;;16.95;12.77;;;;;;;;;;5015968;28;20124;-71
2021/09/09 03:02:04;;;;;;;15.05;12.38;;;;;;;;;;5019498;28;20096;-71
2021/09/09 03:04:30;;;;;;;14.90;12.00;;;;;;;;;;5016357;28;20100;-72
2021/09/09 03:06:56;;;;;;;14.05;12.40;;;;;;;;;;5005593;28;20708;-71
2021/09/09 03:09:22;;;;;;;14.18;12.23;;;;;;;;;;5019587;28;20095;-71
2021/09/09 03:11:48;;;;;;;15.45;13.75;;;;;;;;;;5012023;28;20042;-71
2021/09/09 03:14:15;;;;;;;14.20;12.70;;;;;;;;;;5028864;28;20506;-71
2021/09/09 03:16:41;;;;;;;14.75;13.25;;;;;;;;;;5020667;28;20042;-71
2021/09/09 03:19:07;;;;;;;14.05;12.20;;;;;;;;;;5024018;28;20375;-71
2021/09/09 03:21:33;;;;;;;15.13;13.05;;;;;;;;;;5021682;28;20041;-71
2021/09/09 03:23:59;;;;;;;16.25;14.18;;;;;;;;;;5023472;28;20049;-71
2021/09/09 03:26:25;;;;;;;15.00;13.43;;;;;;;;;;5018389;28;20045;-71
2021/09/09 03:28:51;;;;;;;17.50;13.95;;;;;;;;;;5027271;28;20041;-71
2021/09/09 03:31:17;;;;;;;16.13;13.75;;;;;;;;;;5012861;28;20046;-71
2021/09/09 03:33:43;;;;;;;16.48;14.38;;;;;;;;;;5031678;28;20057;-71
2021/09/09 03:36:09;;;;;;;14.43;12.93;;;;;;;;;;5013373;28;20052;-71
2021/09/09 03:38:35;;;;;;;16.17;14.45;;;;;;;;;;5018559;28;20050;-71
2021/09/09 03:41:01;;;;;;;16.80;14.50;;;;;;;;;;5012268;28;20096;-72
2021/09/09 03:43:28;;;;;;;16.48;14.23;;;;;;;;;;5019871;28;20132;-71
2021/09/09 03:45:54;;;;;;;15.57;13.98;;;;;;;;;;5025792;28;20040;-71
2021/09/09 03:48:20;;;;;;;18.35;14.50;;;;;;;;;;5017690;28;20525;-71
2021/09/09 03:50:46;;;;;;;18.13;15.18;;;;;;;;;;5032690;28;20037;-71
2021/09/09 03:53:12;;;;;;;15.73;14.02;;;;;;;;;;5001282;28;20046;-71
2021/09/09 03:55:38;;;;;;;19.08;14.90;;;;;;;;;;5017737;28;20038;-71
2021/09/09 03:58:04;;;;;;;16.27;14.68;;;;;;;;;;5014962;28;20093;-71
2021/09/09 04:00:30;;;;;;;16.13;14.52;;;;;;;;;;5022165;28;20068;-71
2021/09/09 04:02:57;;;;;;;17.27;15.48;;;;;;;;;;5013582;28;20053;-71
2021/09/09 04:05:23;;;;;;;18.13;14.98;;;;;;;;;;5020615;28;20104;-71
2021/09/09 04:07:49;;;;;;;19.10;13.95;;;;;;;;;;5015047;28;20042;-71
2021/09/09 04:10:15;;;;;;;17.13;15.07;;;;;;;;;;5022537;28;20040;-71
2021/09/09 04:12:41;;;;;;;19.95;14.98;;;;;;;;;;5015067;28;20383;-71
2021/09/09 04:15:08;;;;;;;18.63;16.17;;;;;;;;;;5026041;28;20136;-71
2021/09/09 04:17:35;;;;;;;17.42;15.55;;;;;;;;;;5017096;28;20053;-71
2021/09/09 04:20:01;;;;;;;15.73;14.05;;;;;;;;;;5024151;28;20126;-70
2021/09/09 04:22:27;;;;;;;16.90;15.10;;;;;;;;;;5035993;28;20502;-70
2021/09/09 04:24:53;;;;;;;17.17;15.15;;;;;;;;;;5015497;28;20029;-70
2021/09/09 04:27:22;;;;;;;16.85;15.15;;;;;;;;;;5021589;28;20073;-70
2021/09/09 04:29:48;;;;;;;17.00;15.20;;;;;;;;;;5017581;28;20061;-71
2021/09/09 04:32:14;;;;;;;16.38;14.77;;;;;;;;;;5024522;28;20654;-71
2021/09/09 04:34:40;;;;;;;20.08;15.82;;;;;;;;;;5005555;28;20045;-70
2021/09/09 04:37:06;;;;;;;18.88;15.15;;;;;;;;;;5019507;28;20042;-70
2021/09/09 04:39:32;;;;;;;18.40;15.68;;;;;;;;;;5013345;28;20033;-70
2021/09/09 04:41:58;;;;;;;15.95;14.32;;;;;;;;;;5022860;28;20091;-70
2021/09/09 04:44:25;;;;;;;17.17;15.32;;;;;;;;;;5011559;28;20073;-71
2021/09/09 04:46:51;;;;;;;19.77;15.75;;;;;;;;;;5022540;28;20052;-71
2021/09/09 04:49:17;;;;;;;20.20;16.52;;;;;;;;;;5015022;28;20471;-71
2021/09/09 04:51:43;;;;;;;18.65;16.52;;;;;;;;;;5023720;28;20048;-71
2021/09/09 04:54:09;;;;;;;17.80;16.00;;;;;;;;;;5011570;28;20069;-71
2021/09/09 04:56:35;;;;;;;16.25;14.63;;;;;;;;;;5026104;28;20104;-70
2021/09/09 04:59:01;;;;;;;17.67;15.88;;;;;;;;;;5001482;28;20081;-70
2021/09/09 05:01:27;;;;;;;18.85;16.30;;;;;;;;;;5020851;28;20073;-71
2021/09/09 05:03:53;;;;;;;19.40;17.08;;;;;;;;;;5016625;28;20049;-71
2021/09/09 05:06:19;;;;;;;18.52;15.40;;;;;;;;;;5017709;28;20464;-71
2021/09/09 05:08:46;;;;;;;19.48;17.35;;;;;;;;;;5021119;28;20050;-70
2021/09/09 05:11:12;;;;;;;19.52;17.00;;;;;;;;;;5003203;28;20073;-70
2021/09/09 05:13:39;;;;;;;19.88;17.52;;;;;;;;;;5017225;28;20516;-70
2021/09/09 05:16:05;;;;;;;20.70;17.80;;;;;;;;;;5012296;28;20124;-70
2021/09/09 05:18:31;;;;;;;19.33;17.33;;;;;;;;;;5000564;28;20469;-70
2021/09/09 05:20:57;;;;;;;18.27;16.33;;;;;;;;;;5012225;28;20181;-70
2021/09/09 05:23:23;;;;;;;25.30;19.83;;;;;;;;;;5016134;28;20120;-70
2021/09/09 05:25:49;;;;;;;22.60;19.05;;;;;;;;;;5013772;28;20049;-70
2021/09/09 05:28:16;;;;;;;18.50;16.48;;;;;;;;;;5031824;28;20406;-70
2021/09/09 05:30:42;;;;;;;18.85;16.85;;;;;;;;;;5028952;28;20464;-70
2021/09/09 05:33:08;;;;;;;20.08;17.48;;;;;;;;;;5023022;28;20064;-70
2021/09/09 05:35:34;;;;;;;20.42;16.65;;;;;;;;;;5007848;28;20062;-70
2021/09/09 05:38:00;;;;;;;21.70;18.15;;;;;;;;;;5031365;28;20077;-70
2021/09/09 05:40:26;;;;;;;21.60;17.58;;;;;;;;;;5023469;28;20080;-70
2021/09/09 05:42:53;;;;;;;23.02;17.05;;;;;;;;;;5018035;28;20121;-70
2021/09/09 05:45:19;;;;;;;24.23;20.50;;;;;;;;;;5021567;28;20449;-70
2021/09/09 05:47:45;;;;;;;19.85;17.77;;;;;;;;;;5011002;28;20037;-70
2021/09/09 05:50:12;;;;;;;23.33;19.33;;;;;;;;;;5021789;28;20045;-70
2021/09/09 05:52:38;;;;;;;19.13;17.13;;;;;;;;;;5013961;28;20057;-70
2021/09/09 05:55:04;;;;;;;19.88;17.60;;;;;;;;;;5049522;28;20096;-70
2021/09/09 05:57:31;;;;;;;20.35;17.20;;;;;;;;;;5014568;28;20076;-70
2021/09/09 05:59:57;;;;;;;19.33;17.27;;;;;;;;;;5020893;28;20797;-69
2021/09/09 06:02:27;;;;;;;19.40;16.30;;;;;;;;;;4995444;28;20054;-70
2021/09/09 06:04:55;;;;;;;20.13;17.52;;;;;;;;;;5017369;28;20414;-70
2021/09/09 06:07:21;;;;;;;21.50;17.05;;;;;;;;;;5018500;28;20100;-70
2021/09/09 06:09:47;;;;;;;19.73;17.17;;;;;;;;;;5033383;28;20199;-70
2021/09/09 06:12:13;;;;;;;20.30;17.40;;;;;;;;;;5012719;28;20429;-70
2021/09/09 06:14:39;;;;;;;20.88;17.23;;;;;;;;;;5021058;28;20494;-69
2021/09/09 06:17:06;;;;;;;20.45;17.98;;;;;;;;;;5013796;28;20441;-69
2021/09/09 06:19:32;;;;;;;20.42;18.23;;;;;;;;;;5015902;28;20053;-70
2021/09/09 06:21:58;;;;;;;19.33;17.48;;;;;;;;;;5017743;28;20046;-70
2021/09/09 06:24:25;;;;;;;20.30;16.55;;;;;;;;;;5008275;28;20045;-70
2021/09/09 06:26:51;;;;;;;20.15;18.05;;;;;;;;;;5014567;28;20054;-70
2021/09/09 06:29:17;;;;;;;19.90;17.80;;;;;;;;;;5009965;28;20197;-70
2021/09/09 06:31:43;;;;;;;20.35;17.60;;;;;;;;;;5015826;28;20093;-70
2021/09/09 06:34:09;;;;;;;21.60;17.65;;;;;;;;;;5010169;28;20046;-70
2021/09/09 06:36:36;;;;;;;20.63;18.05;;;;;;;;;;5015167;28;20053;-70
2021/09/09 06:39:02;;;;;;;23.70;18.92;;;;;;;;;;5028986;28;20124;-70
2021/09/09 06:41:28;;;;;;;22.55;19.02;;;;;;;;;;5013894;28;20141;-70
2021/09/09 06:43:54;;;;;;;22.42;18.83;;;;;;;;;;4999369;28;20166;-70
2021/09/09 06:46:20;;;;;;;25.33;18.17;;;;;;;;;;5008135;28;20050;-69
2021/09/09 06:48:46;;;;;;;20.50;18.30;;;;;;;;;;5016065;28;20413;-68
2021/09/09 06:51:13;;;;;;;22.33;18.25;;;;;;;;;;5017337;28;20486;-68
2021/09/09 06:53:39;;;;;;;20.63;17.70;;;;;;;;;;5011752;28;20057;-68
2021/09/09 06:56:05;;;;;;;26.58;19.08;;;;;;;;;;5023179;28;20038;-68
2021/09/09 06:58:31;;;;;;;20.55;18.27;;;;;;;;;;5011067;28;20410;-69
2021/09/09 07:00:58;;;;;;;22.05;18.27;;;;;;;;;;5021892;28;20394;-69
2021/09/09 07:03:29;;;;;;;20.67;18.42;;;;;;;;;;5023134;28;20076;-69
2021/09/09 07:05:55;;;;;;;26.55;18.65;;;;;;;;;;5019236;28;20053;-71
2021/09/09 07:08:21;;;;;;;22.73;19.10;;;;;;;;;;5015158;28;20095;-71
2021/09/09 07:10:47;;;;;;;23.80;19.05;;;;;;;;;;5005457;28;20057;-72
2021/09/09 07:13:17;;;;;;;20.63;18.50;;;;;;;;;;5021008;28;20128;-72
2021/09/09 07:15:43;;;;;;;21.08;18.88;;;;;;;;;;5010651;28;20061;-72
2021/09/09 07:18:09;;;;;;;19.70;17.60;;;;;;;;;;5020951;28;20049;-71
2021/09/09 07:20:35;;;;;;;20.00;17.95;;;;;;;;;;5019701;28;20103;-72
2021/09/09 07:23:01;;;;;;;21.23;18.73;;;;;;;;;;5017436;28;20049;-72
2021/09/09 07:25:27;;;;;;;19.90;17.48;;;;;;;;;;5009877;28;20050;-72
2021/09/09 07:27:53;;;;;;;19.10;17.17;;;;;;;;;;5024133;28;20046;-72
2021/09/09 07:30:19;;;;;;;20.63;17.38;;;;;;;;;;5017722;28;20046;-72
2021/09/09 07:32:45;;;;;;;19.25;17.33;;;;;;;;;;5024283;28;20482;-72
2021/09/09 07:35:11;;;;;;;19.38;17.27;;;;;;;;;;5016058;28;20052;-72
2021/09/09 07:37:38;;;;;;;20.23;18.02;;;;;;;;;;5024209;28;20046;-72
2021/09/09 07:40:04;;;;;;;19.27;16.27;;;;;;;;;;5020673;28;20085;-75
2021/09/09 07:42:30;;;;;;;19.70;16.48;;;;;;;;;;5018606;28;20220;-72
2021/09/09 07:44:57;;;;;;;20.60;17.08;;;;;;;;;;5022889;28;20049;-72
2021/09/09 07:47:23;;;;;;;17.70;15.93;;;;;;;;;;5012553;28;20490;-72
2021/09/09 07:49:49;;;;;;;20.73;16.83;;;;;;;;;;5020910;28;20054;-72
2021/09/09 07:52:15;;;;;;;17.65;15.95;;;;;;;;;;5011091;28;20410;-72
2021/09/09 07:54:41;;;;;;;18.02;16.02;;;;;;;;;;5019621;28;20056;-72
2021/09/09 07:57:07;;;;;;;17.67;15.98;;;;;;;;;;5014228;28;20148;-72
2021/09/09 07:59:34;;;;;;;18.65;16.70;;;;;;;;;;5009838;28;20049;-73
2021/09/09 08:02:00;;;;;;;16.75;14.95;;;;;;;;;;5012880;28;20046;-72
2021/09/09 08:04:26;;;;;;;18.85;16.88;;;;;;;;;;5022112;28;20042;-72
2021/09/09 08:06:52;;;;;;;20.80;16.10;;;;;;;;;;5015486;28;20060;-67
2021/09/09 08:09:18;;;;;;;17.95;15.63;;;;;;;;;;5022825;28;20041;-67
2021/09/09 08:11:44;;;;;;;17.13;15.35;;;;;;;;;;5013716;28;20059;-67
2021/09/09 08:14:10;;;;;;;15.95;14.45;;;;;;;;;;5022406;28;20383;-67
2021/09/09 08:16:37;;;;;;;16.45;14.73;;;;;;;;;;5017488;28;20489;-68
2021/09/09 08:19:03;;;;;;;17.60;15.73;;;;;;;;;;5025237;28;20111;-68
2021/09/09 08:21:29;;;;;;;16.42;14.85;;;;;;;;;;5016900;28;20462;-67
2021/09/09 08:23:55;;;;;;;17.08;14.70;;;;;;;;;;5017640;28;20046;-67
2021/09/09 08:26:21;;;;;;;15.65;14.05;;;;;;;;;;5024595;28;20045;-67
2021/09/09 08:28:47;;;;;;;15.23;13.75;;;;;;;;;;5017122;28;20046;-67
2021/09/09 08:31:13;;;;;;;15.43;13.80;;;;;;;;;;5023856;28;20519;-67
2021/09/09 08:33:42;;;;;;;15.82;13.52;;;;;;;;;;5011200;28;20050;-68
2021/09/09 08:36:09;;;;;;;13.10;11.85;;;;;;;;;;5023154;28;20068;-67
2021/09/09 08:38:40;;;;;;;13.60;12.15;;;;;;;;;;5010579;28;20034;-68
2021/09/09 08:41:06;;;;;;;14.23;12.88;;;;;;;;;;5026477;28;20050;-68
2021/09/09 08:43:32;;;;;;;14.77;11.63;;;;;;;;;;5013008;28;20069;-70
2021/09/09 08:46:02;;;;;;;13.48;12.27;;;;;;;;;;5023050;28;20045;-69
2021/09/09 08:48:29;;;;;;;13.80;12.00;;;;;;;;;;5011696;28;20073;-70
2021/09/09 08:50:55;;;;;;;12.68;11.45;;;;;;;;;;5024308;28;20494;-67
2021/09/09 08:53:22;;;;;;;13.23;11.82;;;;;;;;;;5016357;28;20388;-68
2021/09/09 08:55:49;;;;;;;11.90;10.88;;;;;;;;;;5021304;28;20054;-68
2021/09/09 08:58:16;;;;;;;14.23;12.32;;;;;;;;;;5020847;28;20061;-68
2021/09/09 09:01:00;;;;;;;12.82;11.63;;;;;;;;;;5023177;28;20053;-68
2021/09/09 09:03:41;;;;;;;13.15;11.48;;;;;;;;;;5015248;28;20042;-68
2021/09/09 09:06:27;;;;;;;11.80;10.75;;;;;;;;;;5018742;28;20069;-68
2021/09/09 09:08:57;;;;;;;12.52;11.40;;;;;;;;;;5008477;28;20077;-68
2021/09/09 09:11:24;;;;;;;13.02;11.75;;;;;;;;;;5020346;28;20501;-68
2021/09/09 09:13:50;;;;;;;13.95;11.90;;;;;;;;;;5018878;28;20047;-68
2021/09/09 09:16:17;;;;;;;12.10;10.90;;;;;;;;;;5020890;28;20038;-68
2021/09/09 09:18:43;;;;;;;11.73;10.73;;;;;;;;;;5022904;28;20097;-68
2021/09/09 09:21:09;;;;;;;12.40;11.25;;;;;;;;;;5018780;28;20049;-68
2021/09/09 09:23:38;;;;;;;11.85;10.77;;;;;;;;;;5020802;28;20080;-68
2021/09/09 09:26:05;;;;;;;11.02;10.05;;;;;;;;;;5012231;28;20053;-68
2021/09/09 09:28:38;;;;;;;10.73;9.70;;;;;;;;;;5020347;28;20061;-68
2021/09/09 09:31:05;;;;;;;11.32;9.88;;;;;;;;;;5013678;28;20479;-68
2021/09/09 09:33:32;;;;;;;10.95;9.82;;;;;;;;;;5020425;28;20045;-68
2021/09/09 09:36:12;;;;;;;11.73;8.90;;;;;;;;;;5014909;28;20508;-68
2021/09/09 09:38:38;;;;;;;9.85;8.93;;;;;;;;;;5016956;28;20049;-68
2021/09/09 09:41:07;;;;;;;10.73;9.52;;;;;;;;;;5016038;28;20350;-68
2021/09/09 09:43:34;;;;;;;14.75;10.68;;;;;;;;;;5021069;28;20041;-68
2021/09/09 09:46:00;;;;;;;10.65;9.63;;;;;;;;;;5011078;28;20124;-68
2021/09/09 09:48:32;;;;;;;9.82;8.93;;;;;;;;;;5014852;28;20096;-68
2021/09/09 09:50:58;;;;;;;10.00;9.00;;;;;;;;;;5015223;28;20053;-68
2021/09/09 09:53:24;;;;;;;10.10;9.05;;;;;;;;;;5020403;28;20204;-68
2021/09/09 09:55:51;;;;;;;9.85;8.73;;;;;;;;;;5014244;28;20103;-68
2021/09/09 09:58:17;;;;;;;9.93;9.00;;;;;;;;;;5018229;28;20050;-68
2021/09/09 10:00:43;;;;;;;10.27;8.60;;;;;;;;;;5013382;28;20065;-68
2021/09/09 10:03:09;;;;;;;10.43;9.00;;;;;;;;;;5019110;28;20060;-68
2021/09/09 10:05:36;;;;;;;9.60;8.60;;;;;;;;;;5019612;28;20042;-68
2021/09/09 10:08:03;;;;;;;10.93;8.32;;;;;;;;;;5010648;28;20168;-68
2021/09/09 10:10:29;;;;;;;10.75;7.65;;;;;;;;;;5015747;28;20041;-68
2021/09/09 10:12:55;;;;;;;11.30;8.18;;;;;;;;;;5017045;28;20038;-68
2021/09/09 10:15:22;;;;;;;8.70;7.80;;;;;;;;;;5018979;28;20489;-68
2021/09/09 10:17:49;;;;;;;8.77;7.88;;;;;;;;;;5008495;28;20050;-68
2021/09/09 10:20:28;;;;;;;9.82;7.68;;;;;;;;;;5016821;28;20041;-68
2021/09/09 10:23:09;;;;;;;8.93;8.02;;;;;;;;;;5011041;28;20061;-68
2021/09/09 10:25:41;;;;;;;9.20;7.32;;;;;;;;;;5019900;28;20038;-68
2021/09/09 10:28:26;;;;;;;7.83;7.13;;;;;;;;;;5015569;28;20048;-68
2021/09/09 10:31:02;;;;;;;8.25;7.45;;;;;;;;;;5017204;28;20112;-68
2021/09/09 10:33:29;;;;;;;10.32;7.78;;;;;;;;;;5007590;28;20057;-68
2021/09/09 10:35:55;;;;;;;11.48;7.72;;;;;;;;;;5019884;28;20049;-68
2021/09/09 10:38:21;;;;;;;10.35;7.50;;;;;;;;;;5016432;28;20426;-68
2021/09/09 10:40:48;;;;;;;9.27;7.70;;;;;;;;;;5016231;28;20052;-68
2021/09/09 10:43:23;;;;;;;9.00;8.10;;;;;;;;;;5014568;28;20056;-68
2021/09/09 10:45:49;;;;;;;9.93;6.97;;;;;;;;;;5022867;28;20052;-68
2021/09/09 10:48:15;;;;;;;10.50;7.10;;;;;;;;;;5018705;28;20131;-68
2021/09/09 10:50:56;;;;;;;7.63;6.93;;;;;;;;;;5022756;28;20390;-68
2021/09/09 10:53:33;;;;;;;7.20;6.50;;;;;;;;;;5010462;28;20061;-68
2021/09/09 10:56:07;;;;;;;7.20;6.60;;;;;;;;;;5024181;28;20041;-68
2021/09/09 10:58:33;;;;;;;6.70;6.10;;;;;;;;;;5014124;28;20049;-68
2021/09/09 11:01:05;;;;;;;7.07;6.32;;;;;;;;;;5026039;28;20179;-68
2021/09/09 11:03:42;;;;;;;9.63;6.72;;;;;;;;;;5012873;28;20069;-68
2021/09/09 11:06:18;;;;;;;7.82;6.13;;;;;;;;;;5020754;28;20060;-68
2021/09/09 11:08:46;;;;;;;6.82;6.10;;;;;;;;;;5013344;28;20103;-68
2021/09/09 11:11:16;;;;;;;9.95;6.82;;;;;;;;;;5013703;28;20064;-68
2021/09/09 11:13:42;;;;;;;6.75;6.13;;;;;;;;;;5015746;28;20052;-68
2021/09/09 11:16:21;;;;;;;7.75;6.95;;;;;;;;;;5025997;28;20103;-68
2021/09/09 11:18:48;;;;;;;8.85;5.95;;;;;;;;;;5018721;28;20053;-68
2021/09/09 11:21:19;;;;;;;6.68;5.82;;;;;;;;;;5016583;28;20095;-68
2021/09/09 11:23:45;;;;;;;5.95;5.45;;;;;;;;;;5018701;28;20137;-68
2021/09/09 11:26:13;;;;;;;8.30;6.32;;;;;;;;;;5019161;28;20157;-68
2021/09/09 11:28:39;;;;;;;8.00;6.15;;;;;;;;;;5022697;28;20033;-68
2021/09/09 11:31:07;;;;;;;6.45;5.85;;;;;;;;;;5011974;28;20038;-68
2021/09/09 11:33:45;;;;;;;6.18;5.57;;;;;;;;;;5019596;28;20103;-68
2021/09/09 11:36:11;;;;;;;10.43;6.47;;;;;;;;;;5012503;28;20045;-68
2021/09/09 11:38:37;;;;;;;6.28;5.78;;;;;;;;;;5019802;28;20075;-68
2021/09/09 11:41:10;;;;;;;7.20;5.63;;;;;;;;;;5008758;28;20048;-68
2021/09/09 11:43:37;;;;;;;8.45;6.13;;;;;;;;;;5017399;28;20069;-68
2021/09/09 11:46:03;;;;;;;9.55;6.13;;;;;;;;;;5015498;28;20113;-68
2021/09/09 11:48:30;;;;;;;7.18;6.30;;;;;;;;;;5015340;28;20036;-68
2021/09/09 11:50:56;;;;;;;6.78;6.13;;;;;;;;;;5016540;28;20045;-68
2021/09/09 11:53:23;;;;;;;12.05;6.70;;;;;;;;;;5017747;28;20069;-72
2021/09/09 11:55:49;;;;;;;6.97;6.25;;;;;;;;;;5015987;28;20068;-73
2021/09/09 11:58:31;;;;;;;10.80;6.93;;;;;;;;;;5025429;28;20054;-73
2021/09/09 12:00:58;;;;;;;7.63;6.88;;;;;;;;;;5016240;28;20399;-73
2021/09/09 12:03:25;;;;;;;8.95;6.18;;;;;;;;;;5019175;28;20161;-73
2021/09/09 12:05:52;;;;;;;6.75;6.07;;;;;;;;;;5017132;28;20116;-73
2021/09/09 12:08:19;;;;;;;6.95;6.15;;;;;;;;;;5023234;28;20038;-73
2021/09/09 12:10:45;;;;;;;6.35;5.47;;;;;;;;;;5015734;28;20029;-72
2021/09/09 12:13:11;;;;;;;10.88;6.10;;;;;;;;;;5019887;28;20076;-72
2021/09/09 12:15:38;;;;;;;7.93;6.13;;;;;;;;;;5028563;28;20401;-72
2021/09/09 12:18:08;;;;;;;6.88;6.28;;;;;;;;;;5009069;28;20463;-72
2021/09/09 12:20:34;;;;;;;6.85;6.07;;;;;;;;;;5017414;28;20045;-72
2021/09/09 12:23:01;;;;;;;6.90;6.30;;;;;;;;;;4992731;28;20064;-72
2021/09/09 12:25:27;;;;;;;7.53;6.35;;;;;;;;;;5025471;28;20045;-72
2021/09/09 12:27:53;;;;;;;8.50;6.65;;;;;;;;;;5013661;28;20056;-72
2021/09/09 12:30:22;;;;;;;7.80;7.00;;;;;;;;;;5016820;28;20521;-72
2021/09/09 12:32:48;;;;;;;9.38;6.38;;;;;;;;;;5013787;28;20045;-72
2021/09/09 12:35:16;;;;;;;9.68;6.38;;;;;;;;;;5019306;28;20053;-72
2021/09/09 12:37:42;;;;;;;6.68;6.07;;;;;;;;;;5011124;28;20512;-73
2021/09/09 12:40:12;;;;;;;7.22;5.70;;;;;;;;;;5020728;28;20453;-73
2021/09/09 12:42:38;;;;;;;11.35;6.60;;;;;;;;;;5010416;28;20441;-73
2021/09/09 12:45:10;;;;;;;6.35;5.68;;;;;;;;;;5017087;28;20161;-73
2021/09/09 12:47:36;;;;;;;6.38;5.40;;;;;;;;;;5009840;28;20045;-73
2021/09/09 12:50:21;;;;;;;6.05;5.32;;;;;;;;;;5018307;28;20045;-73
2021/09/09 12:52:53;;;;;;;9.93;5.80;;;;;;;;;;5008171;28;20053;-73
2021/09/09 12:55:19;;;;;;;7.00;6.32;;;;;;;;;;5020850;28;20073;-73
2021/09/09 12:57:45;;;;;;;8.55;5.78;;;;;;;;;;5010734;28;20076;-73
2021/09/09 13:00:12;;;;;;;9.15;7.10;;;;;;;;;;5022141;28;20045;-73
2021/09/09 13:02:38;;;;;;;7.85;6.40;;;;;;;;;;4993830;28;20049;-73
2021/09/09 13:05:04;;;;;;;7.57;6.28;;;;;;;;;;5009647;28;20116;-73
2021/09/09 13:07:32;;;;;;;8.05;6.10;;;;;;;;;;5002831;28;20069;-72
2021/09/09 13:09:58;;;;;;;10.55;6.03;;;;;;;;;;5009697;28;20128;-72
2021/09/09 13:12:24;;;;;;;8.68;5.97;;;;;;;;;;5015578;28;20041;-72
2021/09/09 13:14:50;;;;;;;6.25;5.63;;;;;;;;;;5006320;28;20407;-72
2021/09/09 13:17:16;;;;;;;6.47;5.68;;;;;;;;;;5023347;28;20495;-72
2021/09/09 13:19:42;;;;;;;6.53;5.85;;;;;;;;;;5012890;28;20076;-72
2021/09/09 13:22:08;;;;;;;9.68;6.32;;;;;;;;;;5002975;28;20050;-72
2021/09/09 13:24:34;;;;;;;8.05;5.40;;;;;;;;;;4993585;28;20049;-72
2021/09/09 13:27:00;;;;;;;7.90;6.13;;;;;;;;;;5016720;28;20041;-72
2021/09/09 13:29:26;;;;;;;6.57;5.70;;;;;;;;;;5008971;28;20033;-72
2021/09/09 13:31:52;;;;;;;6.68;6.07;;;;;;;;;;5020504;28;20034;-72
2021/09/09 13:34:18;;;;;;;8.35;6.68;;;;;;;;;;5009311;28;20562;-72
2021/09/09 13:36:44;;;;;;;7.40;6.40;;;;;;;;;;5011261;28;20076;-72
2021/09/09 13:39:10;;;;;;;9.88;6.68;;;;;;;;;;5008622;28;20038;-73
2021/09/09 13:41:37;;;;;;;8.10;6.88;;;;;;;;;;5018674;28;20097;-72
2021/09/09 13:44:04;;;;;;;9.88;6.20;;;;;;;;;;5013278;28;20050;-72
2021/09/09 13:46:30;;;;;;;8.60;6.20;;;;;;;;;;5006892;28;20052;-72
2021/09/09 13:48:57;;;;;;;10.40;6.30;;;;;;;;;;5050413;28;20510;-72
2021/09/09 13:51:23;;;;;;;8.98;7.22;;;;;;;;;;5015352;28;20495;-71
2021/09/09 13:53:49;;;;;;;10.77;6.95;;;;;;;;;;5014129;28;20041;-72
2021/09/09 13:56:17;;;;;;;6.35;5.75;;;;;;;;;;5011299;28;20184;-72
2021/09/09 13:58:43;;;;;;;9.75;6.63;;;;;;;;;;5012351;28;20115;-72
2021/09/09 14:01:11;;;;;;;11.27;6.18;;;;;;;;;;5011322;28;20204;-72
2021/09/09 14:03:37;;;;;;;11.35;6.43;;;;;;;;;;5014287;28;20060;-72
2021/09/09 14:06:03;;;;;;;7.00;5.90;;;;;;;;;;5008869;28;20049;-72
2021/09/09 14:08:29;;;;;;;8.63;6.93;;;;;;;;;;5015855;28;20518;-71
2021/09/09 14:10:55;;;;;;;8.43;6.40;;;;;;;;;;5011475;28;20517;-71
2021/09/09 14:13:21;;;;;;;10.48;6.63;;;;;;;;;;5014670;28;20061;-71
2021/09/09 14:15:47;;;;;;;9.35;6.68;;;;;;;;;;5015782;28;20065;-72
2021/09/09 14:18:14;;;;;;;9.30;5.88;;;;;;;;;;5016344;28;20045;-72
2021/09/09 14:20:41;;;;;;;9.25;6.38;;;;;;;;;;5013772;28;20069;-72
2021/09/09 14:23:07;;;;;;;9.30;6.75;;;;;;;;;;5013911;28;20161;-71
2021/09/09 14:25:33;;;;;;;7.25;6.40;;;;;;;;;;5023618;28;20049;-70